createdAt,value
2022-12-04T00:01:48.708Z,-0.16
2022-12-04T00:04:18.762Z,-0.15
2022-12-04T00:06:52.725Z,-0.24
2022-12-04T00:09:39.179Z,-0.27
2022-12-04T00:12:12.687Z,-0.22
2022-12-04T00:15:16.627Z,-0.21
2022-12-04T00:17:40.715Z,-0.23
2022-12-04T00:20:12.015Z,-0.23
2022-12-04T00:22:42.470Z,-0.19
2022-12-04T00:25:15.365Z,-0.17
2022-12-04T00:27:45.811Z,-0.22
2022-12-04T00:30:16.699Z,-0.22
2022-12-04T00:32:48.788Z,-0.25
2022-12-04T00:35:19.094Z,-0.21
2022-12-04T00:37:54.036Z,-0.17
2022-12-04T00:40:26.797Z,-0.17
2022-12-04T00:42:57.141Z,-0.12
2022-12-04T00:45:27.104Z,-0.23
2022-12-04T00:47:57.514Z,-0.20
2022-12-04T00:50:27.809Z,-0.25
2022-12-04T00:52:58.554Z,-0.24
2022-12-04T00:55:31.801Z,-0.23
2022-12-04T00:58:02.427Z,-0.28
2022-12-04T01:00:32.395Z,-0.20
2022-12-04T01:03:02.843Z,-0.16
2022-12-04T01:05:33.340Z,-0.21
2022-12-04T01:08:03.794Z,-0.17
2022-12-04T01:10:36.634Z,-0.16
2022-12-04T01:13:07.283Z,-0.20
2022-12-04T01:15:42.658Z,-0.17
2022-12-04T01:18:14.365Z,-0.13
2022-12-04T01:20:50.263Z,-0.10
2022-12-04T01:23:22.318Z,-0.12
2022-12-04T01:26:02.055Z,-0.17
2022-12-04T01:28:32.736Z,-0.13
2022-12-04T01:31:05.094Z,-0.17
2022-12-04T01:33:37.533Z,-0.20
2022-12-04T01:36:11.504Z,-0.13
2022-12-04T01:38:42.286Z,-0.10
2022-12-04T01:41:17.609Z,-0.08
2022-12-04T01:43:48.461Z,-0.09
2022-12-04T01:46:18.995Z,-0.07
2022-12-04T01:48:55.329Z,-0.09
2022-12-04T01:51:30.109Z,-0.18
2022-12-04T01:54:04.095Z,-0.15
2022-12-04T01:56:43.978Z,-0.16
2022-12-04T01:59:18.579Z,-0.15
2022-12-04T02:01:56.425Z,-0.12
2022-12-04T02:04:27.570Z,-0.12
2022-12-04T02:06:57.790Z,-0.13
2022-12-04T02:09:30.874Z,-0.19
2022-12-04T02:12:11.614Z,-0.14
2022-12-04T02:14:51.942Z,-0.09
2022-12-04T02:17:30.294Z,-0.11
2022-12-04T02:20:09.671Z,-0.13
2022-12-04T02:22:57.145Z,-0.11
2022-12-04T02:25:34.662Z,-0.10
2022-12-04T02:28:15.195Z,-0.17
2022-12-04T02:30:47.659Z,-0.17
2022-12-04T02:33:23.002Z,-0.11
2022-12-04T02:35:57.968Z,-0.18
2022-12-04T02:38:34.882Z,-0.21
2022-12-04T02:41:11.852Z,-0.12
2022-12-04T02:43:48.408Z,-0.19
2022-12-04T02:46:24.277Z,-0.14
2022-12-04T02:48:59.652Z,-0.22
2022-12-04T02:51:34.436Z,-0.19
2022-12-04T02:54:12.141Z,-0.29
2022-12-04T02:56:45.503Z,-0.27
2022-12-04T02:59:22.969Z,-0.16
2022-12-04T03:01:59.590Z,-0.16
2022-12-04T03:04:33.540Z,-0.17
2022-12-04T03:07:09.277Z,-0.24
2022-12-04T03:09:43.954Z,-0.18
2022-12-04T03:12:19.390Z,-0.12
2022-12-04T03:14:56.806Z,-0.19
2022-12-04T03:17:34.288Z,-0.16
2022-12-04T03:20:12.408Z,-0.20
2022-12-04T03:22:45.360Z,-0.11
2022-12-04T03:25:15.562Z,-0.18
2022-12-04T03:27:51.465Z,-0.16
2022-12-04T03:30:25.493Z,-0.12
2022-12-04T03:33:00.629Z,-0.13
2022-12-04T03:35:35.979Z,-0.10
2022-12-04T03:38:12.274Z,-0.09
2022-12-04T03:40:48.539Z,-0.06
2022-12-04T03:43:24.391Z,-0.09
2022-12-04T03:46:00.773Z,-0.11
2022-12-04T03:48:38.982Z,-0.11
2022-12-04T03:51:16.132Z,-0.16
2022-12-04T03:53:51.588Z,-0.22
2022-12-04T03:56:25.162Z,-0.14
2022-12-04T03:59:00.868Z,-0.13
2022-12-04T04:01:38.427Z,-0.11
2022-12-04T04:04:12.717Z,-0.12
2022-12-04T04:06:46.864Z,-0.07
2022-12-04T04:09:20.267Z,-0.09
2022-12-04T04:11:54.090Z,-0.08
2022-12-04T04:14:39.874Z,-0.09
2022-12-04T04:17:32.276Z,-0.08
2022-12-04T04:20:25.042Z,-0.08
2022-12-04T04:23:13.714Z,-0.14
2022-12-04T04:25:47.128Z,-0.09
2022-12-04T04:28:32.048Z,-0.05
2022-12-04T04:31:10.068Z,-0.04
2022-12-04T04:33:53.525Z,-0.06
2022-12-04T04:36:30.932Z,-0.02
2022-12-04T04:39:07.549Z,-0.05
2022-12-04T04:41:45.800Z,-0.01
2022-12-04T04:44:22.706Z,-0.07
2022-12-04T04:46:55.503Z,-0.10
2022-12-04T04:49:31.043Z,-0.06
2022-12-04T04:52:02.882Z,-0.05
2022-12-04T04:54:36.641Z,-0.05
2022-12-04T04:57:07.048Z,-0.03
2022-12-04T04:59:37.322Z,-0.06
2022-12-04T05:02:07.734Z,-0.05
2022-12-04T05:04:40.401Z,-0.05
2022-12-04T05:07:10.729Z,-0.05
2022-12-04T05:09:41.504Z,0.02
2022-12-04T05:12:12.453Z,-0.02
2022-12-04T05:14:42.406Z,-0.06
2022-12-04T05:17:13.194Z,-0.09
2022-12-04T05:19:58.384Z,-0.05
2022-12-04T05:22:31.637Z,-0.06
2022-12-04T05:25:03.102Z,0.00
2022-12-04T05:27:34.688Z,0.03
2022-12-04T05:30:04.982Z,0.03
2022-12-04T05:32:35.268Z,0.02
2022-12-04T05:35:11.418Z,0.03
2022-12-04T05:37:43.163Z,0.03
2022-12-04T05:40:14.051Z,0.02
2022-12-04T05:42:44.407Z,0.01
2022-12-04T05:45:14.606Z,0.05
2022-12-04T05:47:46.224Z,0.07
2022-12-04T05:50:18.718Z,0.10
2022-12-04T05:52:48.935Z,0.10
2022-12-04T05:55:18.983Z,0.07
2022-12-04T05:57:49.253Z,0.08
2022-12-04T06:00:20.088Z,0.00
2022-12-04T06:02:50.402Z,0.02
2022-12-04T06:05:23.111Z,0.03
2022-12-04T06:07:53.388Z,0.04
2022-12-04T06:10:23.402Z,0.03
2022-12-04T06:12:57.740Z,0.05
2022-12-04T06:15:27.759Z,0.05
2022-12-04T06:17:58.026Z,0.04
2022-12-04T06:20:30.629Z,0.01
2022-12-04T06:23:00.993Z,0.04
2022-12-04T06:25:30.974Z,0.09
2022-12-04T06:28:01.267Z,0.07
2022-12-04T06:30:31.174Z,0.09
2022-12-04T06:33:01.402Z,0.00
2022-12-04T06:35:34.072Z,0.01
2022-12-04T06:38:04.367Z,0.05
2022-12-04T06:40:34.319Z,0.07
2022-12-04T06:43:05.410Z,0.11
2022-12-04T06:45:35.638Z,0.10
2022-12-04T06:48:05.992Z,0.09
2022-12-04T06:50:39.772Z,0.09
2022-12-04T06:53:10.050Z,0.10
2022-12-04T06:55:40.403Z,0.08
2022-12-04T06:58:10.665Z,0.12
2022-12-04T07:00:40.636Z,0.14
2022-12-04T07:03:10.957Z,0.14
2022-12-04T07:05:43.496Z,0.14
2022-12-04T07:08:14.407Z,0.16
2022-12-04T07:10:45.203Z,0.11
2022-12-04T07:13:15.491Z,0.12
2022-12-04T07:15:45.360Z,0.10
2022-12-04T07:18:15.583Z,0.13
2022-12-04T07:20:48.105Z,0.12
2022-12-04T07:23:22.048Z,0.11
2022-12-04T07:25:52.148Z,0.12
2022-12-04T07:28:22.433Z,0.18
2022-12-04T07:31:35.997Z,0.13
2022-12-04T07:34:26.967Z,0.18
2022-12-04T07:37:07.988Z,0.17
2022-12-04T07:42:31.466Z,0.21
2022-12-04T07:45:03.874Z,0.21
2022-12-04T07:47:38.290Z,0.20
2022-12-04T07:50:10.779Z,0.20
2022-12-04T07:52:46.624Z,0.23
2022-12-04T07:55:23.163Z,0.19
2022-12-04T07:57:53.472Z,0.21
2022-12-04T08:00:26.026Z,0.23
2022-12-04T08:02:56.162Z,0.17
2022-12-04T08:05:27.195Z,0.18
2022-12-04T08:07:59.814Z,0.22
2022-12-04T08:10:30.334Z,0.24
2022-12-04T08:13:00.349Z,0.27
2022-12-04T08:15:30.784Z,0.25
2022-12-04T08:18:00.958Z,0.30
2022-12-04T08:20:31.395Z,0.31
2022-12-04T08:23:04.104Z,0.25
2022-12-04T08:25:34.489Z,0.31
2022-12-04T08:28:04.464Z,0.28
2022-12-04T08:30:35.622Z,0.35
2022-12-04T08:33:05.794Z,0.38
2022-12-04T08:35:37.070Z,0.36
2022-12-04T08:38:10.203Z,0.39
2022-12-04T08:40:40.607Z,0.35
2022-12-04T08:43:10.590Z,0.35
2022-12-04T08:45:41.443Z,0.37
2022-12-04T08:48:11.345Z,0.36
2022-12-04T08:50:47.399Z,0.37
2022-12-04T08:53:20.023Z,0.33
2022-12-04T08:55:50.642Z,0.37
2022-12-04T08:58:21.654Z,0.39
2022-12-04T09:00:52.255Z,0.36
2022-12-04T09:03:29.149Z,0.35
2022-12-04T09:06:01.825Z,0.34
2022-12-04T09:08:35.626Z,0.38
2022-12-04T09:11:07.205Z,0.41
2022-12-04T09:13:38.255Z,0.43
2022-12-04T09:16:11.499Z,0.45
2022-12-04T09:18:42.364Z,0.46
2022-12-04T09:21:15.278Z,0.46
2022-12-04T09:23:48.056Z,0.47
2022-12-04T09:26:22.398Z,0.47
2022-12-04T09:28:52.801Z,0.48
2022-12-04T09:31:23.937Z,0.47
2022-12-04T09:33:54.591Z,0.48
2022-12-04T09:36:25.012Z,0.46
2022-12-04T09:38:58.297Z,0.46
2022-12-04T09:41:57.120Z,0.49
2022-12-04T09:44:32.469Z,0.43
2022-12-04T09:47:05.059Z,0.48
2022-12-04T09:49:41.069Z,0.49
2022-12-04T09:52:26.785Z,0.53
2022-12-04T09:55:01.288Z,0.51
2022-12-04T09:57:39.548Z,0.52
2022-12-04T10:00:20.131Z,0.53
2022-12-04T10:02:55.816Z,0.55
2022-12-04T10:05:41.055Z,0.59
2022-12-04T10:08:19.697Z,0.57
2022-12-04T10:11:01.701Z,0.59
2022-12-04T10:14:02.540Z,0.58
2022-12-04T10:16:52.434Z,0.56
2022-12-04T10:19:31.231Z,0.54
2022-12-04T10:22:12.763Z,0.56
2022-12-04T10:24:48.940Z,0.59
2022-12-04T10:27:26.473Z,0.56
2022-12-04T10:30:01.479Z,0.63
2022-12-04T10:32:36.567Z,0.63
2022-12-04T10:35:19.987Z,0.65
2022-12-04T10:37:55.187Z,0.66
2022-12-04T10:40:34.422Z,0.64
2022-12-04T10:43:21.644Z,0.67
2022-12-04T10:45:58.999Z,0.70
2022-12-04T10:48:35.140Z,0.74
2022-12-04T10:51:05.699Z,0.75
2022-12-04T10:53:40.535Z,0.75
2022-12-04T10:56:13.224Z,0.73
2022-12-04T10:59:02.000Z,0.72
2022-12-04T11:01:36.007Z,0.68
2022-12-04T11:04:14.025Z,0.73
2022-12-04T11:06:45.460Z,0.74
2022-12-04T11:09:24.653Z,0.75
2022-12-04T11:11:55.550Z,0.75
2022-12-04T11:14:32.511Z,0.76
2022-12-04T11:17:09.140Z,0.78
2022-12-04T11:19:39.227Z,0.77
2022-12-04T11:22:22.407Z,0.80
2022-12-04T11:24:55.838Z,0.80
2022-12-04T11:27:32.456Z,0.80
2022-12-04T11:30:12.237Z,0.82
2022-12-04T11:32:42.818Z,0.82
2022-12-04T11:35:19.052Z,0.82
2022-12-04T11:37:57.066Z,0.83
2022-12-04T11:40:29.635Z,0.86
2022-12-04T11:43:08.490Z,0.82
2022-12-04T11:45:42.068Z,0.84
2022-12-04T11:48:18.285Z,0.85
2022-12-04T11:50:57.136Z,0.85
2022-12-04T11:53:38.459Z,0.90
2022-12-04T11:56:20.487Z,0.89
2022-12-04T11:59:05.102Z,0.88
2022-12-04T12:01:52.082Z,0.90
2022-12-04T12:04:40.249Z,0.89
2022-12-04T12:07:23.520Z,0.89
2022-12-04T12:10:01.236Z,0.90
2022-12-04T12:12:47.531Z,0.94
2022-12-04T12:15:27.362Z,0.95
2022-12-04T12:18:19.244Z,0.93
2022-12-04T12:21:02.928Z,0.93
2022-12-04T12:24:03.122Z,0.96
2022-12-04T12:26:39.827Z,0.96
2022-12-04T12:29:23.618Z,0.95
2022-12-04T12:32:20.723Z,0.95
2022-12-04T12:34:54.286Z,0.96
2022-12-04T12:37:31.672Z,0.94
2022-12-04T12:40:07.672Z,0.96
2022-12-04T12:42:45.629Z,0.98
2022-12-04T12:45:26.598Z,1.00
2022-12-04T12:48:02.126Z,1.02
2022-12-04T12:50:45.253Z,0.99
2022-12-04T12:53:21.896Z,1.00
2022-12-04T12:55:55.305Z,0.99
2022-12-04T12:58:35.665Z,0.97
2022-12-04T13:01:10.911Z,1.00
2022-12-04T13:03:47.762Z,1.03
2022-12-04T13:06:24.785Z,0.98
2022-12-04T13:09:08.686Z,0.98
2022-12-04T13:11:40.525Z,0.97
2022-12-04T13:14:16.082Z,0.96
2022-12-04T13:16:50.946Z,0.98
2022-12-04T13:19:25.441Z,0.99
2022-12-04T13:22:09.535Z,1.05
2022-12-04T13:24:52.112Z,1.09
2022-12-04T13:27:32.298Z,1.13
2022-12-04T13:30:15.802Z,1.08
2022-12-04T13:33:18.672Z,1.11
2022-12-04T13:36:05.758Z,1.11
2022-12-04T13:38:47.682Z,1.11
2022-12-04T13:41:21.014Z,1.11
2022-12-04T13:43:52.864Z,1.11
2022-12-04T13:46:34.176Z,1.16
2022-12-04T13:49:13.546Z,1.15
2022-12-04T13:51:46.538Z,1.14
2022-12-04T13:54:40.152Z,1.12
2022-12-04T13:57:22.441Z,1.18
2022-12-04T14:00:05.182Z,1.18
2022-12-04T14:02:38.412Z,1.17
2022-12-04T14:05:11.260Z,1.19
2022-12-04T14:07:48.230Z,1.17
2022-12-04T14:10:34.765Z,1.19
2022-12-04T14:13:09.849Z,1.22
2022-12-04T14:15:41.597Z,1.21
2022-12-04T14:18:22.253Z,1.18
2022-12-04T14:21:01.978Z,1.22
2022-12-04T14:23:39.473Z,1.19
2022-12-04T14:26:48.999Z,1.19
2022-12-04T14:29:37.009Z,1.19
2022-12-04T14:32:13.022Z,1.18
2022-12-04T14:34:43.882Z,1.21
2022-12-04T14:37:24.920Z,1.21
2022-12-04T14:39:55.757Z,1.24
2022-12-04T14:42:33.817Z,1.25
2022-12-04T14:45:06.618Z,1.24
2022-12-04T14:47:46.831Z,1.23
2022-12-04T14:50:28.253Z,1.21
2022-12-04T14:53:04.145Z,1.22
2022-12-04T14:55:44.433Z,1.28
2022-12-04T14:58:32.479Z,1.17
2022-12-04T15:01:05.155Z,1.21
2022-12-04T15:03:42.784Z,1.22
2022-12-04T15:06:33.034Z,1.18
2022-12-04T15:09:17.800Z,1.21
2022-12-04T15:12:02.004Z,1.24
2022-12-04T15:14:42.571Z,1.25
2022-12-04T15:17:13.812Z,1.24
2022-12-04T15:19:43.984Z,1.22
2022-12-04T15:22:26.053Z,1.25
2022-12-04T15:24:57.513Z,1.26
2022-12-04T15:27:32.701Z,1.24
2022-12-04T15:30:06.305Z,1.25
2022-12-04T15:32:36.853Z,1.22
2022-12-04T15:35:11.465Z,1.27
2022-12-04T15:37:43.619Z,1.28
2022-12-04T15:40:24.313Z,1.28
2022-12-04T15:43:04.075Z,1.32
2022-12-04T15:45:51.502Z,1.26
2022-12-04T15:48:31.921Z,1.26
2022-12-04T15:51:16.931Z,1.26
2022-12-04T15:53:52.449Z,1.26
2022-12-04T15:56:25.524Z,1.27
2022-12-04T15:59:12.961Z,1.32
2022-12-04T16:01:48.923Z,1.31
2022-12-04T16:04:26.493Z,1.28
2022-12-04T16:07:06.455Z,1.27
2022-12-04T16:09:36.730Z,1.31
2022-12-04T16:12:28.324Z,1.33
2022-12-04T16:14:59.509Z,1.37
2022-12-04T16:17:36.948Z,1.36
2022-12-04T16:20:13.506Z,1.37
2022-12-04T16:22:46.731Z,1.39
2022-12-04T16:28:08.157Z,1.40
2022-12-04T16:30:39.401Z,1.40
2022-12-04T16:33:18.143Z,1.40
2022-12-04T16:36:05.271Z,1.43
2022-12-04T16:38:45.505Z,1.40
2022-12-04T16:41:34.899Z,1.40
2022-12-04T16:44:31.635Z,1.40
2022-12-04T16:47:03.314Z,1.41
2022-12-04T16:52:23.691Z,1.38
2022-12-04T16:55:20.638Z,1.41
2022-12-04T16:57:53.813Z,1.47
2022-12-04T17:00:28.908Z,1.46
2022-12-04T17:02:59.443Z,1.46
2022-12-04T17:05:36.065Z,1.47
2022-12-04T17:08:24.786Z,1.50
2022-12-04T17:11:11.152Z,1.47
2022-12-04T17:16:56.901Z,1.47
2022-12-04T17:19:49.350Z,1.47
2022-12-04T17:22:31.447Z,1.49
2022-12-04T17:25:01.831Z,1.45
2022-12-04T17:28:04.017Z,1.49
2022-12-04T17:31:05.801Z,1.48
2022-12-04T17:33:41.298Z,1.48
2022-12-04T17:36:17.638Z,1.48
2022-12-04T17:38:59.258Z,1.50
2022-12-04T17:41:31.695Z,1.50
2022-12-04T17:44:03.284Z,1.53
2022-12-04T17:46:33.398Z,1.52
2022-12-04T17:49:07.087Z,1.53
2022-12-04T17:51:37.818Z,1.56
2022-12-04T17:54:14.014Z,1.56
2022-12-04T17:56:48.693Z,1.54
2022-12-04T17:59:20.734Z,1.56
2022-12-04T18:01:52.465Z,1.56
2022-12-04T18:04:34.748Z,1.57
2022-12-04T18:07:06.516Z,1.58
2022-12-04T18:10:05.105Z,1.60
2022-12-04T18:12:37.453Z,1.58
2022-12-04T18:15:16.360Z,1.65
2022-12-04T18:17:46.338Z,1.67
2022-12-04T18:22:57.838Z,1.66
2022-12-04T18:25:30.898Z,1.63
2022-12-04T18:28:01.425Z,1.62
2022-12-04T18:30:31.715Z,1.63
2022-12-04T18:33:01.932Z,1.64
2022-12-04T18:35:43.487Z,1.62
2022-12-04T18:38:14.050Z,1.61
2022-12-04T18:40:47.813Z,1.62
2022-12-04T18:43:17.788Z,1.62
2022-12-04T18:46:04.075Z,1.64
2022-12-04T18:48:40.295Z,1.67
2022-12-04T18:51:20.751Z,1.65
2022-12-04T18:53:51.581Z,1.66
2022-12-04T18:56:27.448Z,1.67
2022-12-04T18:59:02.302Z,1.67
2022-12-04T19:01:35.689Z,1.65
2022-12-04T19:04:08.789Z,1.67
2022-12-04T19:06:41.365Z,1.68
2022-12-04T19:09:13.904Z,1.72
2022-12-04T19:11:47.991Z,1.64
2022-12-04T19:14:23.530Z,1.69
2022-12-04T19:16:54.579Z,1.71
2022-12-04T19:19:30.162Z,1.69
2022-12-04T19:22:04.317Z,1.69
2022-12-04T19:24:36.998Z,1.72
2022-12-04T19:27:15.375Z,1.70
2022-12-04T19:32:48.212Z,1.71
2022-12-04T19:35:32.189Z,1.72
2022-12-04T19:38:04.966Z,1.73
2022-12-04T19:40:46.271Z,1.75
2022-12-04T19:43:21.616Z,1.77
2022-12-04T19:45:52.824Z,1.79
2022-12-04T19:48:23.506Z,1.80
2022-12-04T19:50:53.506Z,1.76
2022-12-04T19:53:23.880Z,1.78
2022-12-04T19:55:54.035Z,1.79
2022-12-04T19:58:28.694Z,1.78
2022-12-04T20:00:59.108Z,1.83
2022-12-04T20:03:29.561Z,1.84
2022-12-04T20:06:04.762Z,1.83
2022-12-04T20:08:37.592Z,1.78
2022-12-04T20:11:23.209Z,1.78
2022-12-04T20:14:03.935Z,1.87
2022-12-04T20:16:42.648Z,1.87
2022-12-04T20:19:20.584Z,1.86
2022-12-04T20:21:56.143Z,1.87
2022-12-04T20:24:29.335Z,1.86
2022-12-04T20:26:59.426Z,1.87
2022-12-04T20:29:34.002Z,1.90
2022-12-04T20:32:04.674Z,1.85
2022-12-04T20:34:43.461Z,1.87
2022-12-04T20:37:13.958Z,1.90
2022-12-04T20:39:45.603Z,1.92
2022-12-04T20:49:22.646Z,1.96
2022-12-04T20:55:14.586Z,1.97
2022-12-04T21:04:38.097Z,1.98
2022-12-04T21:18:07.279Z,1.99
2022-12-04T21:20:38.762Z,2.00
2022-12-04T21:23:11.717Z,2.00
2022-12-04T21:25:42.675Z,2.01
2022-12-04T21:28:15.440Z,2.03
2022-12-04T21:30:46.054Z,2.06
2022-12-04T21:33:35.612Z,2.07
2022-12-04T21:39:04.994Z,2.04
2022-12-04T21:41:47.687Z,2.05
2022-12-04T21:44:22.121Z,2.05
2022-12-04T21:46:57.685Z,2.07
2022-12-04T21:49:28.810Z,2.04
2022-12-04T21:52:25.260Z,2.04
2022-12-04T21:54:57.902Z,2.06
2022-12-04T21:57:28.262Z,2.02
2022-12-04T22:00:01.206Z,2.05
2022-12-04T22:02:32.545Z,2.04
2022-12-04T22:05:03.381Z,2.01
2022-12-04T22:07:33.520Z,2.03
2022-12-04T22:10:10.670Z,2.01
2022-12-04T22:12:50.307Z,2.07
2022-12-04T22:15:23.932Z,2.03
2022-12-04T22:17:57.851Z,1.98
2022-12-04T22:20:28.558Z,2.03
2022-12-04T22:23:06.375Z,2.03
2022-12-04T22:25:38.058Z,2.05
2022-12-04T22:28:08.316Z,2.04
2022-12-04T22:30:41.788Z,2.03
2022-12-04T22:33:16.033Z,2.04
2022-12-04T22:35:46.712Z,2.06
2022-12-04T22:38:17.725Z,2.06
2022-12-04T22:40:48.092Z,2.07
2022-12-04T22:43:18.103Z,2.08
2022-12-04T22:45:51.945Z,2.04
2022-12-04T22:48:23.138Z,2.07
2022-12-04T22:51:02.222Z,2.07
2022-12-04T22:53:39.583Z,2.00
2022-12-04T22:56:12.110Z,2.02
2022-12-04T22:58:44.142Z,2.03
2022-12-04T23:01:19.602Z,2.06
2022-12-04T23:03:53.123Z,2.05
2022-12-04T23:06:27.854Z,2.06
2022-12-04T23:08:58.714Z,2.02
2022-12-04T23:11:30.361Z,2.05
2022-12-04T23:14:02.811Z,2.10
2022-12-04T23:16:40.356Z,2.11
2022-12-04T23:19:14.384Z,2.07
2022-12-04T23:21:45.758Z,2.07
2022-12-04T23:24:16.639Z,2.11
2022-12-04T23:26:49.219Z,2.11
2022-12-04T23:29:44.892Z,2.13
2022-12-04T23:32:21.234Z,2.15
2022-12-04T23:34:55.784Z,2.14
2022-12-04T23:37:26.138Z,2.14
2022-12-04T23:39:56.450Z,2.15
2022-12-04T23:42:27.115Z,2.15
2022-12-04T23:44:57.015Z,2.13
2022-12-04T23:47:30.024Z,2.13
2022-12-04T23:50:00.214Z,2.17
2022-12-04T23:52:30.803Z,2.18
2022-12-04T23:55:00.691Z,2.15
2022-12-04T23:57:32.091Z,2.15
